Elbella — 9HA2358 — position and weather

sailwx.info

Track history (hours):
 
Tides and Currents Weather Stations Pressure Air Temp Water Temp Dewpoint Dewpoint Depression Visibility Wind Speed Wind Dir Waves Ship Positions

Elbella

Last reported at 2015-Mar-31 07:33 UTC. Time now 2015-Mar-31 08:30 UTC.
Position N 34°39' E 033°01'.

Length 176 m; draft 9.2 m.

Type: Ship (hazmat cat A). MMSI: 248422000.

Date/timePositionNaut miles runAvg speedWind from/ knotsBaromVisibWave heightAir tempDewpointWater temp
2015-Mar-31 07:33N 34°39' E 033°01'0 0.0
2015-Mar-31 06:33N 34°39' E 033°01'3 2.9
2015-Mar-31 05:33N 34°39' E 033°04'1 1.1
2015-Mar-31 04:33N 34°39' E 033°06'3 3.3
2015-Mar-31 03:34N 34°35' E 033°06'1615.8
2015-Mar-31 02:33N 34°22' E 032°57'  
2015-Mar-27 20:20N 31°22' E 032°16'0 0.0
2015-Mar-27 18:26N 31°22' E 032°16'92 9.1
2015-Mar-27 08:21N 32°37' E 033°18'1717.7
2015-Mar-27 07:22N 32°52' E 033°30'1517.3
2015-Mar-27 06:29N 33°03' E 033°42'2018.0
2015-Mar-27 05:21N 33°15' E 034°02'1418.4
2015-Mar-27 04:33N 33°23' E 034°17'1919.0
2015-Mar-27 03:33N 33°34' E 034°35'1919.2
2015-Mar-27 02:34N 33°45' E 034°54'2018.0
2015-Mar-27 01:27N 33°56' E 035°14'15 1.6
2015-Mar-26 16:23N 33°55' E 035°32'0 0.0
2015-Mar-26 14:32N 33°55' E 035°32'  
2015-Mar-24 00:14N 35°47' E 032°52'1417.1
2015-Mar-23 23:26N 35°46' E 032°35'30516.8
2015-Mar-23 05:15N 36°08' E 026°19'1216.6
2015-Mar-23 04:32N 36°06' E 026°05'3416.9
2015-Mar-23 02:33N 36°01' E 025°24'1616.6
2015-Mar-23 01:33N 35°58' E 025°04'1716.5
2015-Mar-23 00:33N 35°55' E 024°44'  
Track history (hours):
 
Tides and Currents Weather Stations Pressure Air Temp Water Temp Dewpoint Dewpoint Depression Visibility Wind Speed Wind Dir Waves Ship Positions

Elbella

Last reported at 2015-Mar-31 07:33 UTC. Time now 2015-Mar-31 08:30 UTC.
Position N 34°39' E 033°01'.

Length 176 m; draft 9.2 m.

Type: Ship (hazmat cat A). MMSI: 248422000.

Date/timePositionNaut miles runAvg speedWind from/ knotsBaromVisibWave heightAir tempDewpointWater temp
2015-Mar-31 07:33N 34°39' E 033°01'0 0.0
2015-Mar-31 06:33N 34°39' E 033°01'3 2.9
2015-Mar-31 05:33N 34°39' E 033°04'1 1.1
2015-Mar-31 04:33N 34°39' E 033°06'3 3.3
2015-Mar-31 03:34N 34°35' E 033°06'1615.8
2015-Mar-31 02:33N 34°22' E 032°57'  
2015-Mar-27 20:20N 31°22' E 032°16'0 0.0
2015-Mar-27 18:26N 31°22' E 032°16'92 9.1
2015-Mar-27 08:21N 32°37' E 033°18'1717.7
2015-Mar-27 07:22N 32°52' E 033°30'1517.3
2015-Mar-27 06:29N 33°03' E 033°42'2018.0
2015-Mar-27 05:21N 33°15' E 034°02'1418.4
2015-Mar-27 04:33N 33°23' E 034°17'1919.0
2015-Mar-27 03:33N 33°34' E 034°35'1919.2
2015-Mar-27 02:34N 33°45' E 034°54'2018.0
2015-Mar-27 01:27N 33°56' E 035°14'15 1.6
2015-Mar-26 16:23N 33°55' E 035°32'0 0.0
2015-Mar-26 14:32N 33°55' E 035°32'  
2015-Mar-24 00:14N 35°47' E 032°52'1417.1
2015-Mar-23 23:26N 35°46' E 032°35'30516.8
2015-Mar-23 05:15N 36°08' E 026°19'1216.6
2015-Mar-23 04:32N 36°06' E 026°05'3416.9
2015-Mar-23 02:33N 36°01' E 025°24'1616.6
2015-Mar-23 01:33N 35°58' E 025°04'1716.5
2015-Mar-23 00:33N 35°55' E 024°44'  

Dump ship's entire track history